createdAt,value
2023-02-28T00:00:38.603Z,11.13
2023-02-28T00:01:40.708Z,11.16
2023-02-28T00:02:43.782Z,11.14
2023-02-28T00:03:45.414Z,11.06
2023-02-28T00:04:53.905Z,11.01
2023-02-28T00:05:55.465Z,10.99
2023-02-28T00:06:56.998Z,10.94
2023-02-28T00:07:58.588Z,10.92
2023-02-28T00:09:00.157Z,10.92
2023-02-28T00:10:01.807Z,10.93
2023-02-28T00:11:08.662Z,10.95
2023-02-28T00:12:11.426Z,10.99
2023-02-28T00:13:13.030Z,11.00
2023-02-28T00:14:14.600Z,10.96
2023-02-28T00:15:17.300Z,10.96
2023-02-28T00:16:22.588Z,10.94
2023-02-28T00:17:24.685Z,10.83
2023-02-28T00:18:26.209Z,10.78
2023-02-28T00:19:27.772Z,10.70
2023-02-28T00:20:29.368Z,10.62
2023-02-28T00:21:31.532Z,10.55
2023-02-28T00:22:33.256Z,10.54
2023-02-28T00:23:34.959Z,10.49
2023-02-28T00:24:36.615Z,10.44
2023-02-28T00:25:38.226Z,10.41
2023-02-28T00:26:39.809Z,10.47
2023-02-28T00:27:41.763Z,10.50
2023-02-28T00:28:43.318Z,10.54
2023-02-28T00:29:44.848Z,10.57
2023-02-28T00:30:46.546Z,10.58
2023-02-28T00:31:48.124Z,10.60
2023-02-28T00:32:51.325Z,10.59
2023-02-28T00:33:52.923Z,10.61
2023-02-28T00:34:54.507Z,10.63
2023-02-28T00:36:07.427Z,10.62
2023-02-28T00:37:11.420Z,10.62
2023-02-28T00:38:14.451Z,10.59
2023-02-28T00:39:16.735Z,10.55
2023-02-28T00:40:18.495Z,10.56
2023-02-28T00:41:20.384Z,10.61
2023-02-28T00:42:21.929Z,10.67
2023-02-28T00:43:23.612Z,10.70
2023-02-28T00:44:25.194Z,10.76
2023-02-28T00:45:26.749Z,10.77
2023-02-28T00:46:28.355Z,10.77
2023-02-28T00:47:30.242Z,10.81
2023-02-28T00:48:32.118Z,10.74
2023-02-28T00:49:33.875Z,10.72
2023-02-28T00:50:35.404Z,10.74
2023-02-28T00:51:37.000Z,10.79
2023-02-28T00:52:38.549Z,10.82
2023-02-28T00:53:40.049Z,10.86
2023-02-28T00:54:41.592Z,10.90
2023-02-28T00:55:43.193Z,10.95
2023-02-28T00:56:44.858Z,11.02
2023-02-28T00:57:46.423Z,11.07
2023-02-28T00:58:48.032Z,11.10
2023-02-28T00:59:49.666Z,11.13
2023-02-28T01:00:53.690Z,11.09
2023-02-28T01:01:55.470Z,11.07
2023-02-28T01:02:57.047Z,11.05
2023-02-28T01:03:58.626Z,11.00
2023-02-28T01:05:00.160Z,10.99
2023-02-28T01:06:01.845Z,10.98
2023-02-28T01:07:03.458Z,10.90
2023-02-28T01:08:05.406Z,10.85
2023-02-28T01:09:08.312Z,10.79
2023-02-28T01:10:10.554Z,10.80
2023-02-28T01:11:12.988Z,10.80
2023-02-28T01:12:14.590Z,10.84
2023-02-28T01:13:16.335Z,10.86
2023-02-28T01:14:18.889Z,10.88
2023-02-28T01:15:20.437Z,10.90
2023-02-28T01:16:22.090Z,10.92
2023-02-28T01:17:24.121Z,10.94
2023-02-28T01:18:25.787Z,10.94
2023-02-28T01:19:27.391Z,10.96
2023-02-28T01:20:29.002Z,10.98
2023-02-28T01:21:31.505Z,11.00
2023-02-28T01:22:33.251Z,11.02
2023-02-28T01:23:34.953Z,11.03
2023-02-28T01:24:36.506Z,11.02
2023-02-28T01:25:39.106Z,10.98
2023-02-28T01:26:40.736Z,10.85
2023-02-28T01:27:42.309Z,10.64
2023-02-28T01:28:44.115Z,10.57
2023-02-28T01:29:45.721Z,10.43
2023-02-28T01:30:51.618Z,10.31
2023-02-28T01:31:53.360Z,10.39
2023-02-28T01:32:54.902Z,10.24
2023-02-28T01:33:56.444Z,10.05
2023-02-28T01:34:57.993Z,9.87
2023-02-28T01:36:05.142Z,9.65
2023-02-28T01:37:06.720Z,9.52
2023-02-28T01:38:21.268Z,9.49
2023-02-28T01:39:23.823Z,9.43
2023-02-28T01:40:25.390Z,9.34
2023-02-28T01:41:30.325Z,9.27
2023-02-28T01:42:32.112Z,9.23
2023-02-28T01:43:58.421Z,9.25
2023-02-28T01:45:27.398Z,9.24
2023-02-28T01:46:29.081Z,9.27
2023-02-28T01:47:35.815Z,9.35
2023-02-28T01:48:45.568Z,9.41
2023-02-28T01:49:48.452Z,9.38
2023-02-28T01:50:51.004Z,9.37
2023-02-28T01:51:57.419Z,9.44
2023-02-28T01:53:02.644Z,9.45
2023-02-28T01:54:14.529Z,9.44
2023-02-28T01:55:19.677Z,9.39
2023-02-28T01:56:25.515Z,9.34
2023-02-28T01:57:38.475Z,9.20
2023-02-28T01:58:40.348Z,9.12
2023-02-28T02:00:05.722Z,9.08
2023-02-28T02:01:07.326Z,9.08
2023-02-28T02:02:09.142Z,9.07
2023-02-28T02:03:17.292Z,9.07
2023-02-28T02:04:20.333Z,9.08
2023-02-28T02:05:24.957Z,9.10
2023-02-28T02:06:48.564Z,9.06
2023-02-28T02:07:55.178Z,9.03
2023-02-28T02:08:56.778Z,9.07
2023-02-28T02:10:22.935Z,9.06
2023-02-28T02:11:26.113Z,9.02
2023-02-28T02:12:50.989Z,9.03
2023-02-28T02:14:02.596Z,9.03
2023-02-28T02:15:18.408Z,9.04
2023-02-28T02:16:46.693Z,9.04
2023-02-28T02:17:53.222Z,9.07
2023-02-28T02:18:58.478Z,9.02
2023-02-28T02:20:11.887Z,8.97
2023-02-28T02:21:28.084Z,9.00
2023-02-28T02:23:08.417Z,8.95
2023-02-28T02:24:28.804Z,8.93
2023-02-28T02:25:30.417Z,8.91
2023-02-28T02:27:02.506Z,8.94
2023-02-28T02:28:35.163Z,8.96
2023-02-28T02:29:58.214Z,8.94
2023-02-28T02:31:39.985Z,9.02
2023-02-28T02:33:06.289Z,9.06
2023-02-28T02:34:22.038Z,9.11
2023-02-28T02:35:43.231Z,9.17
2023-02-28T02:36:58.058Z,9.22
2023-02-28T02:38:31.030Z,9.30
2023-02-28T02:39:57.076Z,9.32
2023-02-28T02:41:24.522Z,9.25
2023-02-28T02:42:40.480Z,9.19
2023-02-28T02:43:52.886Z,9.11
2023-02-28T02:45:04.052Z,9.03
2023-02-28T02:46:18.691Z,9.06
2023-02-28T02:47:23.989Z,8.99
2023-02-28T02:48:33.560Z,8.93
2023-02-28T02:49:39.271Z,8.90
2023-02-28T02:50:46.423Z,8.78
2023-02-28T02:51:49.175Z,8.69
2023-02-28T02:52:56.648Z,8.63
2023-02-28T02:54:06.184Z,8.55
2023-02-28T02:55:13.132Z,8.50
2023-02-28T02:56:16.965Z,8.46
2023-02-28T02:57:26.825Z,8.48
2023-02-28T02:58:33.140Z,8.42
2023-02-28T02:59:37.252Z,8.36
2023-02-28T03:00:44.254Z,8.32
2023-02-28T03:01:45.947Z,8.34
2023-02-28T03:02:50.384Z,8.31
2023-02-28T03:03:52.048Z,8.37
2023-02-28T03:05:01.683Z,8.52
2023-02-28T03:06:04.233Z,8.65
2023-02-28T03:07:05.844Z,8.71
2023-02-28T03:08:07.492Z,8.72
2023-02-28T03:09:09.012Z,8.57
2023-02-28T03:10:29.167Z,8.62
2023-02-28T03:11:31.481Z,8.74
2023-02-28T03:12:53.135Z,8.86
2023-02-28T03:14:20.118Z,8.93
2023-02-28T03:15:30.796Z,9.07
2023-02-28T03:16:58.573Z,9.20
2023-02-28T03:18:10.168Z,9.31
2023-02-28T03:19:42.596Z,9.42
2023-02-28T03:21:24.908Z,9.49
2023-02-28T03:22:39.179Z,9.58
2023-02-28T03:24:05.729Z,9.62
2023-02-28T03:25:10.236Z,9.65
2023-02-28T03:26:23.748Z,9.67
2023-02-28T03:27:36.061Z,9.72
2023-02-28T03:28:45.870Z,9.75
2023-02-28T03:29:53.135Z,9.77
2023-02-28T03:31:04.756Z,9.80
2023-02-28T03:32:24.937Z,9.79
2023-02-28T03:33:40.166Z,9.77
2023-02-28T03:34:49.499Z,9.78
2023-02-28T03:35:56.519Z,9.73
2023-02-28T03:37:09.041Z,9.67
2023-02-28T03:38:19.111Z,9.59
2023-02-28T03:39:29.985Z,9.55
2023-02-28T03:40:36.003Z,9.57
2023-02-28T03:41:43.478Z,9.47
2023-02-28T03:42:49.278Z,9.44
2023-02-28T03:43:58.391Z,9.35
2023-02-28T03:45:03.899Z,9.33
2023-02-28T03:46:12.245Z,9.29
2023-02-28T03:47:20.037Z,9.28
2023-02-28T03:48:36.769Z,9.35
2023-02-28T03:49:46.714Z,9.35
2023-02-28T03:50:53.272Z,9.33
2023-02-28T03:51:56.897Z,9.32
2023-02-28T03:53:10.737Z,9.30
2023-02-28T03:54:19.673Z,9.29
2023-02-28T03:55:22.287Z,9.32
2023-02-28T03:56:32.280Z,9.32
2023-02-28T03:57:54.113Z,9.33
2023-02-28T03:59:01.678Z,9.33
2023-02-28T04:00:13.689Z,9.33
2023-02-28T04:01:36.788Z,9.28
2023-02-28T04:02:38.494Z,9.21
2023-02-28T04:03:40.517Z,9.28
2023-02-28T04:04:46.223Z,9.31
2023-02-28T04:05:58.586Z,9.40
2023-02-28T04:07:07.120Z,9.47
2023-02-28T04:08:09.315Z,9.52
2023-02-28T04:10:14.185Z,9.63
2023-02-28T04:11:15.652Z,9.68
2023-02-28T04:12:17.225Z,9.72
2023-02-28T04:13:18.747Z,9.77
2023-02-28T04:14:20.392Z,9.82
2023-02-28T04:15:23.879Z,9.91
2023-02-28T04:16:35.061Z,9.98
2023-02-28T04:17:37.329Z,10.04
2023-02-28T04:18:44.017Z,10.05
2023-02-28T04:19:45.555Z,10.03
2023-02-28T04:20:47.150Z,10.04
2023-02-28T04:21:51.329Z,10.04
2023-02-28T04:22:52.894Z,10.06
2023-02-28T04:23:54.659Z,10.07
2023-02-28T04:24:56.199Z,10.08
2023-02-28T04:25:58.118Z,10.11
2023-02-28T04:26:59.716Z,10.14
2023-02-28T04:28:01.458Z,10.17
2023-02-28T04:29:05.073Z,10.20
2023-02-28T04:30:07.438Z,10.14
2023-02-28T04:31:10.670Z,10.11
2023-02-28T04:32:12.645Z,10.05
2023-02-28T04:33:14.428Z,10.02
2023-02-28T04:34:17.034Z,9.96
2023-02-28T04:35:18.598Z,9.97
2023-02-28T04:36:20.249Z,9.87
2023-02-28T04:37:21.780Z,9.72
2023-02-28T04:38:23.335Z,9.56
2023-02-28T04:39:25.978Z,9.47
2023-02-28T04:40:27.885Z,9.38
2023-02-28T04:41:32.289Z,9.39
2023-02-28T04:42:36.650Z,9.41
2023-02-28T04:43:38.343Z,9.39
2023-02-28T04:44:39.964Z,9.38
2023-02-28T04:45:41.546Z,9.33
2023-02-28T04:46:43.478Z,9.28
2023-02-28T04:47:45.084Z,9.30
2023-02-28T04:48:46.738Z,9.26
2023-02-28T04:49:48.558Z,9.17
2023-02-28T04:50:50.168Z,9.09
2023-02-28T04:51:51.705Z,9.07
2023-02-28T04:52:53.261Z,8.95
2023-02-28T04:53:55.297Z,8.86
2023-02-28T04:54:56.878Z,8.82
2023-02-28T04:55:58.689Z,8.79
2023-02-28T04:57:00.223Z,8.75
2023-02-28T04:58:01.855Z,8.79
2023-02-28T04:59:03.498Z,8.81
2023-02-28T05:00:07.887Z,8.80
2023-02-28T05:01:38.510Z,8.76
2023-02-28T05:02:40.568Z,8.74
2023-02-28T05:03:42.916Z,8.71
2023-02-28T05:04:44.556Z,8.65
2023-02-28T05:05:46.081Z,8.63
2023-02-28T05:06:47.646Z,8.66
2023-02-28T05:07:49.282Z,8.62
2023-02-28T05:08:51.188Z,8.57
2023-02-28T05:09:52.744Z,8.58
2023-02-28T05:10:54.276Z,8.55
2023-02-28T05:11:56.964Z,8.50
2023-02-28T05:12:58.694Z,8.51
2023-02-28T05:14:00.437Z,8.53
2023-02-28T05:15:03.337Z,8.51
2023-02-28T05:16:05.163Z,8.50
2023-02-28T05:17:06.704Z,8.44
2023-02-28T05:18:09.472Z,8.43
2023-02-28T05:19:11.085Z,8.41
2023-02-28T05:20:16.156Z,8.36
2023-02-28T05:21:26.068Z,8.34
2023-02-28T05:22:27.798Z,8.32
2023-02-28T05:23:29.379Z,8.23
2023-02-28T05:24:31.090Z,8.24
2023-02-28T05:25:32.640Z,8.18
2023-02-28T05:26:39.101Z,8.15
2023-02-28T05:27:40.670Z,8.15
2023-02-28T05:28:42.226Z,8.16
2023-02-28T05:29:46.417Z,8.17
2023-02-28T05:30:48.557Z,8.20
2023-02-28T05:31:50.450Z,8.21
2023-02-28T05:32:52.567Z,8.22
2023-02-28T05:33:54.302Z,8.28
2023-02-28T05:34:56.035Z,8.28
2023-02-28T05:35:57.656Z,8.26
2023-02-28T05:36:59.187Z,8.27
2023-02-28T05:38:00.716Z,8.18
2023-02-28T05:39:02.333Z,8.22
2023-02-28T05:40:07.163Z,8.24
2023-02-28T05:41:10.298Z,8.19
2023-02-28T05:42:11.871Z,8.17
2023-02-28T05:43:13.439Z,8.27
2023-02-28T05:44:16.291Z,8.30
2023-02-28T05:45:18.102Z,8.31
2023-02-28T05:46:19.617Z,8.27
2023-02-28T05:47:21.487Z,8.24
2023-02-28T05:48:23.139Z,8.25
2023-02-28T05:49:24.775Z,8.27
2023-02-28T05:50:26.329Z,8.26
2023-02-28T05:51:28.402Z,8.31
2023-02-28T05:52:33.149Z,8.34
2023-02-28T05:53:34.797Z,8.37
2023-02-28T05:54:36.345Z,8.43
2023-02-28T05:55:38.501Z,8.44
2023-02-28T05:56:41.617Z,8.40
2023-02-28T05:57:43.994Z,8.35
2023-02-28T05:58:45.556Z,8.40
2023-02-28T05:59:47.120Z,8.40
2023-02-28T06:00:49.207Z,8.35
2023-02-28T06:01:51.284Z,8.41
2023-02-28T06:02:57.225Z,8.44
2023-02-28T06:04:01.000Z,8.44
2023-02-28T06:05:02.739Z,8.47
2023-02-28T06:06:04.349Z,8.46
2023-02-28T06:07:05.897Z,8.45
2023-02-28T06:08:08.323Z,8.47
2023-02-28T06:09:09.905Z,8.47
2023-02-28T06:10:12.890Z,8.44
2023-02-28T06:11:14.907Z,8.41
2023-02-28T06:12:16.458Z,8.38
2023-02-28T06:13:18.025Z,8.34
2023-02-28T06:14:20.889Z,8.33
2023-02-28T06:15:22.479Z,8.30
2023-02-28T06:16:25.401Z,8.33
2023-02-28T06:17:27.055Z,8.29
2023-02-28T06:18:28.613Z,8.31
2023-02-28T06:19:31.556Z,8.29
2023-02-28T06:20:33.200Z,8.31
2023-02-28T06:21:34.785Z,8.32
2023-02-28T06:22:37.158Z,8.31
2023-02-28T06:23:38.781Z,8.37
2023-02-28T06:24:40.376Z,8.37
2023-02-28T06:25:46.473Z,8.43
2023-02-28T06:26:48.097Z,8.42
2023-02-28T06:27:50.244Z,8.47
2023-02-28T06:28:52.101Z,8.55
2023-02-28T06:29:56.856Z,8.54
2023-02-28T06:30:58.469Z,8.49
2023-02-28T06:32:00.089Z,8.45
2023-02-28T06:33:01.701Z,8.47
2023-02-28T06:34:03.736Z,8.50
2023-02-28T06:35:05.763Z,8.57
2023-02-28T06:36:08.824Z,8.58
2023-02-28T06:37:10.358Z,8.56
2023-02-28T06:38:11.868Z,8.53
2023-02-28T06:39:13.434Z,8.52
2023-02-28T06:40:15.684Z,8.55
2023-02-28T06:41:17.225Z,8.59
2023-02-28T06:42:18.941Z,8.60
2023-02-28T06:43:20.468Z,8.57
2023-02-28T06:44:23.023Z,8.53
2023-02-28T06:45:27.133Z,8.46
2023-02-28T06:46:28.738Z,8.48
2023-02-28T06:47:32.373Z,8.43
2023-02-28T06:48:35.962Z,8.45
2023-02-28T06:49:37.879Z,8.48
2023-02-28T06:50:39.659Z,8.51
2023-02-28T06:51:46.127Z,8.61
2023-02-28T06:52:48.338Z,8.67
2023-02-28T06:53:49.912Z,8.68
2023-02-28T06:55:00.760Z,8.68
2023-02-28T07:12:25.597Z,8.19
2023-02-28T07:13:27.585Z,8.19
2023-02-28T07:14:29.208Z,8.18
2023-02-28T07:15:31.052Z,8.19
2023-02-28T07:16:32.630Z,8.17
2023-02-28T07:17:34.179Z,8.11
2023-02-28T07:18:36.356Z,8.12
2023-02-28T07:19:38.061Z,8.16
2023-02-28T07:20:39.656Z,8.22
2023-02-28T07:21:41.211Z,8.19
2023-02-28T07:22:42.946Z,8.25
2023-02-28T07:23:44.533Z,8.28
2023-02-28T07:24:46.124Z,8.31
2023-02-28T07:25:48.208Z,8.38
2023-02-28T07:26:49.721Z,8.46
2023-02-28T07:27:51.710Z,8.46
2023-02-28T07:28:54.155Z,8.52
2023-02-28T07:29:55.953Z,8.57
2023-02-28T07:30:57.749Z,8.57
2023-02-28T07:31:59.336Z,8.62
2023-02-28T07:33:00.892Z,8.61
2023-02-28T07:34:03.513Z,8.56
2023-02-28T07:35:05.417Z,8.58
2023-02-28T07:36:16.336Z,8.62
2023-02-28T07:37:18.069Z,8.64
2023-02-28T07:38:19.705Z,8.61
2023-02-28T07:39:22.651Z,8.66
2023-02-28T07:40:24.305Z,8.67
2023-02-28T07:41:28.897Z,8.69
2023-02-28T07:42:30.684Z,8.72
2023-02-28T07:43:33.448Z,8.75
2023-02-28T07:44:34.987Z,8.79
2023-02-28T07:45:36.539Z,8.81
2023-02-28T07:46:38.618Z,8.87
2023-02-28T07:47:40.279Z,8.91
2023-02-28T07:48:42.697Z,8.93
2023-02-28T07:49:44.282Z,8.98
2023-02-28T07:50:49.158Z,9.02
2023-02-28T07:51:50.725Z,9.02
2023-02-28T07:52:52.343Z,8.98
2023-02-28T07:53:53.921Z,8.97
2023-02-28T07:54:55.476Z,8.91
2023-02-28T07:55:58.316Z,8.87
2023-02-28T07:57:00.035Z,8.89
2023-02-28T07:58:01.685Z,8.86
2023-02-28T07:59:03.242Z,8.81
2023-02-28T08:00:07.861Z,8.86
2023-02-28T08:01:10.959Z,8.91
2023-02-28T08:02:17.714Z,8.81
2023-02-28T08:03:20.576Z,8.75
2023-02-28T08:04:22.212Z,8.69
2023-02-28T08:05:23.839Z,8.70
2023-02-28T08:06:27.240Z,8.73
2023-02-28T08:07:28.979Z,8.70
2023-02-28T08:08:32.271Z,8.72
2023-02-28T08:09:35.024Z,8.74
2023-02-28T08:10:36.655Z,8.69
2023-02-28T08:11:38.230Z,8.65
2023-02-28T08:12:39.740Z,8.65
2023-02-28T08:13:43.290Z,8.60
2023-02-28T08:14:44.940Z,8.60
2023-02-28T08:15:48.406Z,8.62
2023-02-28T08:16:50.032Z,8.63
2023-02-28T08:17:51.585Z,8.71
2023-02-28T08:18:53.886Z,8.71
2023-02-28T08:19:55.573Z,8.78
2023-02-28T08:20:58.483Z,8.81
2023-02-28T08:22:00.106Z,8.78
2023-02-28T08:23:01.655Z,8.78
2023-02-28T08:24:03.414Z,8.82
2023-02-28T08:25:05.620Z,8.88
2023-02-28T08:26:07.350Z,8.94
2023-02-28T08:27:09.056Z,8.91
2023-02-28T08:28:10.628Z,8.92
2023-02-28T08:29:12.314Z,8.92
2023-02-28T08:30:15.202Z,8.95
2023-02-28T08:31:17.704Z,8.99
2023-02-28T08:32:29.249Z,9.06
2023-02-28T08:33:32.502Z,9.07
2023-02-28T08:34:34.227Z,9.07
2023-02-28T08:35:37.603Z,9.00
2023-02-28T08:36:40.105Z,8.99
2023-02-28T08:37:41.684Z,8.99
2023-02-28T08:38:43.467Z,8.98
2023-02-28T08:39:44.994Z,8.96
2023-02-28T08:40:46.636Z,8.98
2023-02-28T08:41:53.487Z,9.05
2023-02-28T08:43:01.312Z,9.08
2023-02-28T08:44:02.882Z,9.18
2023-02-28T08:45:04.853Z,9.21
2023-02-28T08:46:07.777Z,9.18
2023-02-28T08:47:09.491Z,9.14
2023-02-28T08:48:11.372Z,9.16
2023-02-28T08:49:12.975Z,9.14
2023-02-28T08:50:15.956Z,9.15
2023-02-28T08:51:22.372Z,9.20
2023-02-28T08:52:23.929Z,9.21
2023-02-28T08:53:25.601Z,9.23
2023-02-28T08:54:27.246Z,9.26
2023-02-28T08:55:28.863Z,9.22
2023-02-28T08:56:30.855Z,9.27
2023-02-28T08:57:32.870Z,9.34
2023-02-28T08:58:35.378Z,9.44
2023-02-28T08:59:36.959Z,9.53
2023-02-28T09:00:38.463Z,9.61
2023-02-28T09:01:42.226Z,9.64
2023-02-28T09:02:44.719Z,9.61
2023-02-28T09:03:48.332Z,9.57
2023-02-28T09:04:49.921Z,9.50
2023-02-28T09:05:59.888Z,9.48
2023-02-28T09:07:02.165Z,9.48
2023-02-28T09:08:03.955Z,9.45
2023-02-28T09:09:07.416Z,9.45
2023-02-28T09:10:10.185Z,9.52
2023-02-28T09:11:12.381Z,9.54
2023-02-28T09:12:13.942Z,9.56
2023-02-28T09:13:15.612Z,9.57
2023-02-28T09:14:18.554Z,9.56
2023-02-28T09:15:20.173Z,9.59
2023-02-28T09:16:21.850Z,9.58
2023-02-28T09:17:23.494Z,9.58
2023-02-28T09:18:25.432Z,9.60
2023-02-28T09:19:27.000Z,9.70
2023-02-28T09:20:28.542Z,9.74
2023-02-28T09:21:30.409Z,9.81
2023-02-28T09:22:32.152Z,9.92
2023-02-28T09:23:33.903Z,9.90
2023-02-28T09:24:36.897Z,9.98
2023-02-28T09:25:39.217Z,9.93
2023-02-28T09:26:42.970Z,9.85
2023-02-28T09:27:49.389Z,9.82
2023-02-28T09:28:51.984Z,9.77
2023-02-28T09:29:53.538Z,9.78
2023-02-28T09:30:55.678Z,9.88
2023-02-28T09:31:59.804Z,9.98
2023-02-28T09:33:01.417Z,10.04
2023-02-28T09:34:03.124Z,10.11
2023-02-28T09:35:05.380Z,10.08
2023-02-28T09:36:07.463Z,10.00
2023-02-28T09:37:09.048Z,9.95
2023-02-28T09:38:11.537Z,9.95
2023-02-28T09:39:15.600Z,10.00
2023-02-28T09:40:20.760Z,9.98
2023-02-28T09:41:29.237Z,10.06
2023-02-28T09:42:34.610Z,10.13
2023-02-28T09:43:42.270Z,10.23
2023-02-28T09:44:47.751Z,10.34
2023-02-28T09:46:07.278Z,10.41
2023-02-28T09:47:13.229Z,10.50
2023-02-28T09:48:19.675Z,10.52
2023-02-28T09:49:26.678Z,10.59
2023-02-28T09:50:28.283Z,10.66
2023-02-28T09:51:52.366Z,10.68
2023-02-28T09:52:56.276Z,10.76
2023-02-28T09:54:01.947Z,10.78
2023-02-28T09:55:32.755Z,10.86
2023-02-28T09:56:36.664Z,10.86
2023-02-28T09:57:41.231Z,10.89
2023-02-28T09:59:00.943Z,11.01
2023-02-28T10:00:17.480Z,11.00
2023-02-28T10:01:34.555Z,10.92
2023-02-28T10:02:59.227Z,10.93
2023-02-28T10:04:09.520Z,10.99
2023-02-28T10:05:20.929Z,11.04
2023-02-28T10:06:29.668Z,11.12
2023-02-28T10:08:00.005Z,11.15
2023-02-28T10:09:15.213Z,11.20
2023-02-28T10:10:37.144Z,11.26
2023-02-28T10:11:40.859Z,11.25
2023-02-28T10:12:47.513Z,11.28
2023-02-28T10:14:02.239Z,11.20
2023-02-28T10:15:05.367Z,11.13
2023-02-28T10:16:11.549Z,11.04
2023-02-28T10:17:49.197Z,11.09
2023-02-28T10:19:03.025Z,11.27
2023-02-28T10:20:20.574Z,11.37
2023-02-28T10:21:31.220Z,11.41
2023-02-28T10:22:46.017Z,11.46
2023-02-28T10:23:49.511Z,11.50
2023-02-28T10:24:54.110Z,11.52
2023-02-28T10:26:02.061Z,11.60
2023-02-28T10:27:19.671Z,11.71
2023-02-28T10:28:21.274Z,11.72
2023-02-28T10:29:22.879Z,11.67
2023-02-28T10:30:24.443Z,11.61
2023-02-28T10:31:26.563Z,11.67
2023-02-28T10:32:31.951Z,11.74
2023-02-28T10:33:35.935Z,11.78
2023-02-28T10:34:37.541Z,11.83
2023-02-28T10:35:39.117Z,11.90
2023-02-28T10:36:44.055Z,11.95
2023-02-28T10:38:09.506Z,12.00
2023-02-28T10:39:40.493Z,12.01
2023-02-28T10:40:42.069Z,12.06
2023-02-28T10:41:44.289Z,12.06
2023-02-28T10:43:03.676Z,12.03
2023-02-28T10:44:16.343Z,12.05
2023-02-28T10:45:18.259Z,12.08
2023-02-28T10:46:27.734Z,12.16
2023-02-28T10:47:29.640Z,12.29
2023-02-28T10:48:35.636Z,12.29
2023-02-28T10:49:40.566Z,12.27
2023-02-28T10:50:47.833Z,12.34
2023-02-28T10:51:54.113Z,12.42
2023-02-28T10:52:56.001Z,12.42
2023-02-28T10:54:01.592Z,12.34
2023-02-28T10:55:26.193Z,12.29
2023-02-28T10:56:28.540Z,12.19
2023-02-28T10:57:31.640Z,12.10
2023-02-28T10:59:02.866Z,12.13
2023-02-28T11:00:17.125Z,12.06
2023-02-28T11:01:21.794Z,11.93
2023-02-28T11:02:30.934Z,11.95
2023-02-28T11:03:35.874Z,11.91
2023-02-28T11:04:39.058Z,11.88
2023-02-28T11:05:43.234Z,11.94
2023-02-28T11:06:45.173Z,11.95
2023-02-28T11:07:53.881Z,11.88
2023-02-28T11:09:22.271Z,11.67
2023-02-28T11:10:29.840Z,11.70
2023-02-28T11:11:44.231Z,11.62
2023-02-28T11:12:52.262Z,11.55
2023-02-28T11:13:57.250Z,11.38
2023-02-28T11:15:06.757Z,11.32
2023-02-28T11:16:11.735Z,11.25
2023-02-28T11:17:23.112Z,11.35
2023-02-28T11:18:37.428Z,11.52
2023-02-28T11:19:45.237Z,11.67
2023-02-28T11:20:51.607Z,11.82
2023-02-28T11:22:01.416Z,11.89
2023-02-28T11:23:06.041Z,11.80
2023-02-28T11:24:25.145Z,11.67
2023-02-28T11:25:28.601Z,11.36
2023-02-28T11:26:45.432Z,11.28
2023-02-28T11:28:07.861Z,11.20
2023-02-28T11:29:28.152Z,11.18
2023-02-28T11:30:39.911Z,11.23
2023-02-28T11:31:41.628Z,11.28
2023-02-28T11:32:50.318Z,11.43
2023-02-28T11:33:56.845Z,11.51
2023-02-28T11:35:14.891Z,11.49
2023-02-28T11:36:25.643Z,11.47
2023-02-28T11:37:29.805Z,11.35
2023-02-28T11:38:35.228Z,11.34
2023-02-28T11:39:37.052Z,11.37
2023-02-28T11:40:50.554Z,11.39
2023-02-28T11:42:16.033Z,11.36
2023-02-28T11:44:25.221Z,11.49
2023-02-28T11:45:44.704Z,11.46
2023-02-28T11:46:52.520Z,11.48
2023-02-28T11:48:09.798Z,11.62
2023-02-28T11:49:48.600Z,11.88
2023-02-28T11:51:11.439Z,12.16
2023-02-28T11:52:20.945Z,12.20
2023-02-28T11:53:42.787Z,12.16
2023-02-28T11:55:01.135Z,12.23
2023-02-28T11:56:12.868Z,12.26
2023-02-28T11:57:46.425Z,12.37
2023-02-28T11:59:10.230Z,12.46
2023-02-28T12:00:28.762Z,12.59
2023-02-28T12:01:43.955Z,12.58
2023-02-28T12:02:59.285Z,12.74
2023-02-28T12:04:22.678Z,12.77
2023-02-28T12:06:06.076Z,12.64
2023-02-28T12:07:41.824Z,12.35
2023-02-28T12:09:14.215Z,12.25
2023-02-28T12:10:26.323Z,12.15
2023-02-28T12:11:57.264Z,12.10
2023-02-28T12:13:41.219Z,11.96
2023-02-28T12:15:25.738Z,11.81
2023-02-28T12:16:46.846Z,11.88
2023-02-28T12:18:06.476Z,12.04
2023-02-28T12:19:14.071Z,12.16
2023-02-28T12:20:42.667Z,12.17
2023-02-28T12:21:44.180Z,12.11
2023-02-28T12:23:16.627Z,12.09
2023-02-28T12:24:47.219Z,11.98
2023-02-28T12:26:01.842Z,12.08
2023-02-28T12:27:10.611Z,12.03
2023-02-28T12:28:15.623Z,11.94
2023-02-28T12:29:43.504Z,11.88
2023-02-28T12:31:09.672Z,11.68
2023-02-28T12:32:25.286Z,11.69
2023-02-28T12:33:34.355Z,11.67
2023-02-28T12:34:43.872Z,11.58
2023-02-28T12:36:00.353Z,11.60
2023-02-28T12:37:08.483Z,11.79
2023-02-28T12:38:21.756Z,11.98
2023-02-28T12:39:50.171Z,12.13
2023-02-28T12:41:02.100Z,11.96
2023-02-28T12:42:17.730Z,11.91
2023-02-28T12:43:21.755Z,11.95
2023-02-28T12:44:31.808Z,11.85
2023-02-28T12:45:58.014Z,11.93
2023-02-28T12:47:05.733Z,12.06
2023-02-28T12:48:11.926Z,12.09
2023-02-28T12:49:18.631Z,12.10
2023-02-28T12:50:21.007Z,12.20
2023-02-28T12:51:23.496Z,12.13
2023-02-28T12:52:56.990Z,12.13
2023-02-28T12:53:58.528Z,12.26
2023-02-28T12:55:12.055Z,12.39
2023-02-28T12:56:36.656Z,12.49
2023-02-28T12:57:46.854Z,12.57
2023-02-28T12:58:55.587Z,12.60
2023-02-28T13:00:01.419Z,12.70
2023-02-28T13:01:12.290Z,12.76
2023-02-28T13:02:28.882Z,12.84
2023-02-28T13:04:05.557Z,12.96
2023-02-28T13:05:28.290Z,12.95
2023-02-28T13:06:36.541Z,12.77
2023-02-28T13:07:56.693Z,12.57
2023-02-28T13:09:17.139Z,12.37
2023-02-28T13:10:19.848Z,12.31
2023-02-28T13:11:26.941Z,12.27
2023-02-28T13:12:28.947Z,12.29
2023-02-28T13:13:32.671Z,12.27
2023-02-28T13:14:34.158Z,12.22
2023-02-28T13:15:41.509Z,12.17
2023-02-28T13:16:55.900Z,12.06
2023-02-28T13:18:00.532Z,11.87
2023-02-28T13:19:12.673Z,11.85
2023-02-28T13:20:38.365Z,11.81
2023-02-28T13:21:45.619Z,11.74
2023-02-28T13:22:53.773Z,11.72
2023-02-28T13:24:00.103Z,11.68
2023-02-28T13:25:02.125Z,11.70
2023-02-28T13:26:04.044Z,11.69
2023-02-28T13:27:12.610Z,11.75
2023-02-28T13:28:35.329Z,11.77
2023-02-28T13:29:39.697Z,11.74
2023-02-28T13:30:53.966Z,11.73
2023-02-28T13:32:07.546Z,11.73
2023-02-28T13:33:21.115Z,11.66
2023-02-28T13:34:22.755Z,11.64
2023-02-28T13:35:39.082Z,11.73
2023-02-28T13:36:40.833Z,11.74
2023-02-28T13:37:50.843Z,11.75
2023-02-28T13:39:01.342Z,11.77
2023-02-28T13:40:11.964Z,11.79
2023-02-28T13:41:32.200Z,11.86
2023-02-28T13:42:50.795Z,11.90
2023-02-28T13:44:27.460Z,11.97
2023-02-28T13:45:31.102Z,12.09
2023-02-28T13:46:51.613Z,12.16
2023-02-28T13:48:02.631Z,12.19
2023-02-28T13:49:33.312Z,12.17
2023-02-28T13:50:41.206Z,12.07
2023-02-28T13:51:49.670Z,11.98
2023-02-28T13:53:14.490Z,11.89
2023-02-28T13:54:31.621Z,11.88
2023-02-28T13:55:57.334Z,11.90
2023-02-28T13:57:28.087Z,11.85
2023-02-28T13:58:41.743Z,11.81
2023-02-28T14:10:00.813Z,11.78
2023-02-28T14:11:10.677Z,11.85
2023-02-28T14:12:49.650Z,11.96
2023-02-28T14:13:51.246Z,12.05
2023-02-28T14:14:52.789Z,12.12
2023-02-28T14:16:03.071Z,12.23
2023-02-28T14:17:07.508Z,12.24
2023-02-28T14:18:32.990Z,12.32
2023-02-28T14:19:38.122Z,12.38
2023-02-28T14:20:41.968Z,12.39
2023-02-28T14:22:21.098Z,12.50
2023-02-28T14:23:44.410Z,12.59
2023-02-28T14:25:34.203Z,12.65
2023-02-28T14:26:59.667Z,12.79
2023-02-28T14:28:28.418Z,12.87
2023-02-28T14:29:48.690Z,13.00
2023-02-28T14:31:03.236Z,13.09
2023-02-28T14:32:26.757Z,13.10
2023-02-28T14:33:35.800Z,13.02
2023-02-28T14:34:56.873Z,13.05
2023-02-28T14:36:03.810Z,13.14
2023-02-28T14:37:06.626Z,13.21
2023-02-28T14:38:22.284Z,13.28
2023-02-28T14:39:26.635Z,13.24
2023-02-28T14:40:34.856Z,13.10
2023-02-28T14:41:40.100Z,13.16
2023-02-28T14:42:49.021Z,13.22
2023-02-28T14:43:57.617Z,13.19
2023-02-28T14:44:59.275Z,13.09
2023-02-28T14:46:03.793Z,13.04
2023-02-28T14:47:07.681Z,13.05
2023-02-28T14:48:12.312Z,13.01
2023-02-28T14:49:22.284Z,13.06
2023-02-28T14:50:32.495Z,13.17
2023-02-28T14:51:37.290Z,13.27
2023-02-28T14:52:42.119Z,13.33
2023-02-28T14:53:44.032Z,13.26
2023-02-28T14:54:45.963Z,13.18
2023-02-28T14:55:49.317Z,13.08
2023-02-28T14:56:51.299Z,13.00
2023-02-28T14:57:56.677Z,13.01
2023-02-28T14:58:58.349Z,13.10
2023-02-28T15:00:12.380Z,13.21
2023-02-28T15:01:22.273Z,13.30
2023-02-28T15:02:26.487Z,13.26
2023-02-28T15:03:36.784Z,13.13
2023-02-28T15:04:38.484Z,13.20
2023-02-28T15:05:40.115Z,13.26
2023-02-28T15:06:42.703Z,13.19
2023-02-28T15:07:48.787Z,12.97
2023-02-28T15:09:08.833Z,12.90
2023-02-28T15:10:26.969Z,12.77
2023-02-28T15:11:28.952Z,12.68